createdAt,value
2023-02-19T00:18:23.146Z,9.5
2023-02-19T00:28:23.377Z,9.5
2023-02-19T00:48:24.365Z,9.5
2023-02-19T00:58:24.500Z,9.5
2023-02-19T01:18:25.602Z,9.5
2023-02-19T01:28:26.243Z,9.5
2023-02-19T01:38:26.593Z,9.4
2023-02-19T01:48:27.314Z,9.4
2023-02-19T01:58:27.734Z,9.4
2023-02-19T02:08:29.150Z,9.4
2023-02-19T02:18:29.167Z,9.4
2023-02-19T02:28:29.644Z,9.3
2023-02-19T02:38:29.945Z,9.3
2023-02-19T02:48:30.670Z,9.2
2023-02-19T02:58:30.930Z,9.2
2023-02-19T03:08:31.579Z,9.2
2023-02-19T03:28:33.260Z,9.2
2023-02-19T03:38:33.403Z,9.2
2023-02-19T03:48:33.726Z,9.1
2023-02-19T03:58:34.126Z,9
2023-02-19T04:08:34.624Z,9
2023-02-19T04:18:34.727Z,9
2023-02-19T04:28:41.215Z,8.9
2023-02-19T04:38:41.924Z,8.9
2023-02-19T04:48:42.667Z,8.9
2023-02-19T04:49:22.295Z,8.9
2023-02-19T04:58:50.907Z,8.9
2023-02-19T05:08:49.599Z,8.9
2023-02-19T05:18:50.326Z,8.8
2023-02-19T05:28:50.464Z,8.8
2023-02-19T05:38:50.916Z,8.7
2023-02-19T05:48:51.895Z,8.8
2023-02-19T06:18:53.979Z,8.7
2023-02-19T06:28:54.883Z,8.6
2023-02-19T06:38:55.516Z,8.6
2023-02-19T06:48:56.272Z,8.6
2023-02-19T06:58:57.324Z,8.6
2023-02-19T07:08:57.657Z,8.6
2023-02-19T07:18:58.255Z,8.6
2023-02-19T07:28:58.969Z,8.5
2023-02-19T07:38:59.294Z,8.5
2023-02-19T07:49:00.312Z,8.5
2023-02-19T07:59:00.858Z,8.4
2023-02-19T08:09:01.174Z,8.4
2023-02-19T08:19:02.082Z,8.4
2023-02-19T08:29:02.517Z,8.6
2023-02-19T08:39:02.859Z,8.6
2023-02-19T08:49:03.015Z,8.7
2023-02-19T09:09:03.733Z,8.7
2023-02-19T09:19:04.566Z,8.7
2023-02-19T09:29:05.171Z,8.6
2023-02-19T09:39:05.437Z,8.7
2023-02-19T09:59:06.970Z,8.7
2023-02-19T10:19:07.884Z,8.7
2023-02-19T10:29:08.842Z,8.8
2023-02-19T10:39:09.591Z,8.8
2023-02-19T10:49:10.333Z,8.8
2023-02-19T10:59:10.875Z,8.9
2023-02-19T11:09:11.276Z,9.2
2023-02-19T11:19:11.933Z,9.3
2023-02-19T11:29:12.905Z,9.4
2023-02-19T11:39:13.324Z,9.4
2023-02-19T11:59:14.696Z,8.1
2023-02-19T12:09:15.336Z,7.4
2023-02-19T12:19:15.629Z,7.2
2023-02-19T12:29:16.287Z,7.2
2023-02-19T12:39:16.332Z,7.3
2023-02-19T12:49:16.587Z,7.2
2023-02-19T13:19:17.608Z,7.4
2023-02-19T13:29:18.277Z,7.6
2023-02-19T13:39:18.718Z,7.7
2023-02-19T13:49:18.930Z,7.5
2023-02-19T14:19:21.088Z,7.7
2023-02-19T14:29:22.079Z,7.9
2023-02-19T14:49:23.108Z,7.9
2023-02-19T15:09:27.546Z,7.9
2023-02-19T15:29:25.584Z,7.9
2023-02-19T15:59:27.590Z,8
2023-02-19T16:09:28.392Z,8
2023-02-19T16:19:28.692Z,8
2023-02-19T16:39:29.572Z,8
2023-02-19T17:19:32.027Z,8
2023-02-19T17:39:32.762Z,7.8
2023-02-19T17:59:33.672Z,7.7
2023-02-19T18:29:35.226Z,7.5
2023-02-19T18:49:35.868Z,6.4
2023-02-19T19:09:36.753Z,6
2023-02-19T19:19:37.147Z,6
2023-02-19T19:39:37.468Z,6
2023-02-19T19:59:38.299Z,6.1
2023-02-19T20:09:38.433Z,6.1
2023-02-19T20:39:41.212Z,6
2023-02-19T20:59:42.136Z,6
2023-02-19T21:09:42.848Z,6
2023-02-19T21:39:44.014Z,6
2023-02-19T21:59:45.428Z,5.9
2023-02-19T22:09:45.926Z,5.9
2023-02-19T22:19:46.919Z,6
2023-02-19T22:49:48.978Z,6
2023-02-19T22:59:49.584Z,5.8
2023-02-19T23:19:50.393Z,5.4
